createdAt,value
2018-12-22T00:00:42.336Z,66.40
2018-12-22T00:03:10.474Z,66.40
2018-12-22T00:05:38.584Z,65.80
2018-12-22T00:08:06.630Z,65.00
2018-12-22T00:10:34.773Z,64.90
2018-12-22T00:13:02.839Z,64.60
2018-12-22T00:15:30.915Z,64.40
2018-12-22T00:17:58.999Z,64.00
2018-12-22T00:20:27.057Z,64.00
2018-12-22T00:22:55.086Z,63.10
2018-12-22T00:25:23.108Z,63.10
2018-12-22T00:27:51.233Z,61.90
2018-12-22T00:30:19.443Z,62.00
2018-12-22T00:32:47.510Z,61.90
2018-12-22T00:35:15.658Z,61.00
2018-12-22T00:37:43.690Z,60.10
2018-12-22T00:40:11.792Z,60.10
2018-12-22T00:42:39.901Z,59.80
2018-12-22T00:45:07.886Z,58.80
2018-12-22T00:47:35.939Z,58.60
2018-12-22T00:50:05.306Z,58.40
2018-12-22T00:52:33.393Z,58.30
2018-12-22T00:55:01.403Z,57.70
2018-12-22T00:57:29.407Z,56.90
2018-12-22T00:59:57.422Z,56.90
2018-12-22T01:02:25.400Z,56.60
2018-12-22T01:04:53.391Z,56.70
2018-12-22T01:07:21.452Z,56.40
2018-12-22T01:09:49.466Z,56.80
2018-12-22T01:12:17.505Z,57.10
2018-12-22T01:14:45.544Z,57.40
2018-12-22T01:17:13.567Z,59.70
2018-12-22T01:19:41.652Z,62.30
2018-12-22T01:22:09.758Z,63.80
2018-12-22T01:24:37.894Z,65.60
2018-12-22T01:27:06.022Z,66.40
2018-12-22T01:29:34.038Z,67.50
2018-12-22T01:32:02.052Z,68.70
2018-12-22T01:34:30.026Z,69.10
2018-12-22T01:36:58.049Z,69.10
2018-12-22T01:39:26.129Z,69.20
2018-12-22T01:41:54.388Z,69.00
2018-12-22T01:44:22.410Z,68.90
2018-12-22T01:46:50.433Z,68.70
2018-12-22T01:49:18.453Z,68.60
2018-12-22T01:51:46.436Z,69.10
2018-12-22T01:54:14.482Z,69.30
2018-12-22T01:56:42.450Z,68.70
2018-12-22T01:59:10.414Z,69.20
2018-12-22T02:01:38.382Z,70.00
2018-12-22T02:04:06.375Z,71.80
2018-12-22T02:06:34.510Z,72.70
2018-12-22T02:09:04.178Z,74.00
2018-12-22T02:11:32.210Z,74.60
2018-12-22T02:14:00.186Z,74.40
2018-12-22T02:16:28.215Z,74.70
2018-12-22T02:18:56.153Z,74.30
2018-12-22T02:21:24.253Z,72.50
2018-12-22T02:23:52.222Z,72.40
2018-12-22T02:26:20.449Z,71.20
2018-12-22T02:28:56.391Z,70.50
2018-12-22T02:31:18.486Z,70.20
2018-12-22T02:33:46.493Z,70.10
2018-12-22T02:36:14.437Z,69.90
2018-12-22T02:38:42.418Z,69.70
2018-12-22T02:41:10.499Z,69.70
2018-12-22T02:43:38.487Z,69.70
2018-12-22T02:46:06.499Z,68.90
2018-12-22T02:48:34.548Z,69.20
2018-12-22T02:51:03.193Z,68.10
2018-12-22T02:53:31.224Z,67.80
2018-12-22T02:55:59.296Z,66.80
2018-12-22T02:58:27.318Z,66.30
2018-12-22T03:00:55.336Z,65.10
2018-12-22T03:03:23.325Z,64.90
2018-12-22T03:05:51.341Z,64.20
2018-12-22T03:08:19.365Z,64.10
2018-12-22T03:10:47.393Z,64.40
2018-12-22T03:13:15.365Z,63.80
2018-12-22T03:15:43.297Z,63.10
2018-12-22T03:18:11.361Z,63.20
2018-12-22T03:20:39.540Z,62.90
2018-12-22T03:23:07.516Z,62.80
2018-12-22T03:25:35.563Z,63.00
2018-12-22T03:28:03.548Z,63.10
2018-12-22T03:30:31.526Z,62.80
2018-12-22T03:32:59.619Z,62.90
2018-12-22T03:35:27.770Z,62.60
2018-12-22T03:37:55.824Z,62.00
2018-12-22T03:40:24.807Z,62.10
2018-12-22T03:42:52.762Z,61.60
2018-12-22T03:45:21.263Z,62.10
2018-12-22T03:47:49.279Z,62.70
2018-12-22T03:50:17.334Z,61.70
2018-12-22T03:52:45.416Z,61.40
2018-12-22T03:55:13.434Z,61.30
2018-12-22T03:57:41.405Z,60.80
2018-12-22T04:00:09.519Z,60.00
2018-12-22T04:02:37.558Z,60.10
2018-12-22T04:05:07.051Z,59.50
2018-12-22T04:07:35.400Z,59.40
2018-12-22T04:10:04.438Z,58.00
2018-12-22T04:12:32.440Z,57.60
2018-12-22T04:15:00.523Z,57.00
2018-12-22T04:17:28.476Z,56.50
2018-12-22T04:19:56.488Z,55.60
2018-12-22T04:22:24.482Z,55.30
2018-12-22T04:24:54.077Z,55.00
2018-12-22T04:27:22.087Z,55.40
2018-12-22T04:29:50.054Z,55.00
2018-12-22T04:32:18.031Z,54.90
2018-12-22T04:34:46.080Z,55.00
2018-12-22T04:37:14.059Z,54.70
2018-12-22T04:39:42.015Z,54.30
2018-12-22T04:42:10.015Z,54.60
2018-12-22T04:44:38.153Z,54.50
2018-12-22T04:47:06.124Z,54.50
2018-12-22T04:49:34.221Z,54.30
2018-12-22T04:52:02.373Z,54.80
2018-12-22T04:54:30.343Z,55.00
2018-12-22T04:56:58.353Z,55.10
2018-12-22T04:59:26.305Z,55.00
2018-12-22T05:01:54.410Z,55.00
2018-12-22T05:04:23.132Z,55.30
2018-12-22T05:06:51.110Z,55.20
2018-12-22T05:09:19.162Z,55.40
2018-12-22T05:11:47.878Z,55.40
2018-12-22T05:14:15.890Z,55.80
2018-12-22T05:16:44.031Z,56.30
2018-12-22T05:19:11.997Z,57.10
2018-12-22T05:21:40.174Z,57.50
2018-12-22T05:24:08.185Z,57.80
2018-12-22T05:26:36.293Z,58.80
2018-12-22T05:29:04.260Z,59.00
2018-12-22T05:31:32.234Z,60.00
2018-12-22T05:34:00.206Z,58.40
2018-12-22T05:36:28.171Z,59.10
2018-12-22T05:38:56.148Z,59.00
2018-12-22T05:41:24.698Z,59.10
2018-12-22T05:43:52.707Z,59.20
2018-12-22T05:46:20.942Z,59.20
2018-12-22T05:48:48.890Z,60.10
2018-12-22T05:51:17.011Z,60.40
2018-12-22T05:53:45.063Z,60.90
2018-12-22T05:56:13.007Z,61.00
2018-12-22T05:58:41.325Z,61.60
2018-12-22T06:01:09.657Z,60.90
2018-12-22T06:03:37.638Z,60.70
2018-12-22T06:06:06.226Z,60.40
2018-12-22T06:08:34.432Z,60.30
2018-12-22T06:11:02.417Z,60.00
2018-12-22T06:13:30.475Z,60.10
2018-12-22T06:15:58.456Z,59.90
2018-12-22T06:18:26.494Z,59.80
2018-12-22T06:20:54.654Z,60.40
2018-12-22T06:23:22.740Z,61.10
2018-12-22T06:25:50.726Z,61.20
2018-12-22T06:28:18.670Z,61.30
2018-12-22T06:30:46.676Z,61.20
2018-12-22T06:33:14.795Z,61.00
2018-12-22T06:35:42.845Z,60.80
2018-12-22T06:38:10.848Z,60.10
2018-12-22T06:40:38.859Z,60.30
2018-12-22T06:43:06.851Z,59.70
2018-12-22T06:45:34.875Z,58.70
2018-12-22T06:48:02.968Z,58.50
2018-12-22T06:50:30.932Z,58.20
2018-12-22T06:52:58.909Z,57.40
2018-12-22T06:55:26.963Z,57.10
2018-12-22T06:57:55.004Z,56.90
2018-12-22T07:00:23.207Z,55.90
2018-12-22T07:02:51.303Z,56.30
2018-12-22T07:05:19.315Z,55.80
2018-12-22T07:07:47.457Z,55.70
2018-12-22T07:10:15.468Z,55.30
2018-12-22T07:12:43.462Z,55.70
2018-12-22T07:15:11.462Z,55.50
2018-12-22T07:17:39.424Z,56.00
2018-12-22T07:20:07.422Z,56.40
2018-12-22T07:22:35.436Z,57.40
2018-12-22T07:25:03.718Z,57.80
2018-12-22T07:27:31.672Z,58.40
2018-12-22T07:29:59.677Z,58.50
2018-12-22T07:32:27.677Z,59.00
2018-12-22T07:34:55.904Z,58.90
2018-12-22T07:37:24.076Z,58.60
2018-12-22T07:39:52.526Z,58.50
2018-12-22T07:42:20.531Z,58.60
2018-12-22T07:44:48.501Z,58.00
2018-12-22T07:47:16.599Z,57.90
2018-12-22T07:49:44.658Z,57.80
2018-12-22T07:52:12.763Z,58.10
2018-12-22T07:54:41.070Z,57.70
2018-12-22T07:57:09.127Z,58.10
2018-12-22T07:59:37.142Z,58.10
2018-12-22T08:02:05.215Z,58.10
2018-12-22T08:04:33.271Z,57.60
2018-12-22T08:07:01.366Z,57.60
2018-12-22T08:09:29.400Z,57.20
2018-12-22T08:11:57.492Z,56.40
2018-12-22T08:14:25.622Z,56.10
2018-12-22T08:16:53.876Z,56.20
2018-12-22T08:19:21.908Z,56.00
2018-12-22T08:21:49.927Z,55.80
2018-12-22T08:24:18.050Z,55.70
2018-12-22T08:26:46.168Z,55.10
2018-12-22T08:29:14.210Z,54.30
2018-12-22T08:31:42.261Z,53.80
2018-12-22T08:34:10.325Z,53.80
2018-12-22T08:36:38.869Z,53.60
2018-12-22T08:39:07.281Z,53.00
2018-12-22T08:41:35.393Z,52.60
2018-12-22T08:44:03.881Z,52.50
2018-12-22T08:46:31.945Z,52.50
2018-12-22T08:49:00.095Z,51.10
2018-12-22T08:51:28.163Z,51.70
2018-12-22T08:53:56.232Z,51.10
2018-12-22T08:56:24.288Z,50.60
2018-12-22T08:58:52.468Z,51.30
2018-12-22T09:01:20.622Z,50.90
2018-12-22T09:03:48.657Z,51.00
2018-12-22T09:06:16.871Z,51.20
2018-12-22T09:08:44.910Z,51.70
2018-12-22T09:11:12.954Z,52.50
2018-12-22T09:13:41.163Z,53.00
2018-12-22T09:16:09.215Z,53.30
2018-12-22T09:18:37.407Z,52.50
2018-12-22T09:21:05.449Z,52.50
2018-12-22T09:23:33.555Z,53.00
2018-12-22T09:26:01.640Z,53.50
2018-12-22T09:28:29.769Z,53.70
2018-12-22T09:31:00.950Z,54.10
2018-12-22T09:33:27.955Z,54.00
2018-12-22T09:35:56.008Z,54.00
2018-12-22T09:38:24.075Z,54.90
2018-12-22T09:40:52.428Z,56.40
2018-12-22T09:43:20.614Z,60.60
2018-12-22T09:45:48.668Z,63.50
2018-12-22T09:48:16.834Z,66.20
2018-12-22T09:50:44.973Z,65.70
2018-12-22T09:53:13.099Z,67.80
2018-12-22T09:55:41.315Z,67.70
2018-12-22T09:58:09.432Z,69.00
2018-12-22T10:00:37.588Z,69.80
2018-12-22T10:03:05.789Z,71.20
2018-12-22T10:05:38.973Z,73.10
2018-12-22T10:08:07.242Z,71.90
2018-12-22T10:10:35.442Z,73.00
2018-12-22T10:13:03.861Z,73.70
2018-12-22T10:15:31.888Z,72.70
2018-12-22T10:18:00.109Z,71.80
2018-12-22T10:20:28.329Z,70.70
2018-12-22T10:22:56.508Z,72.10
2018-12-22T10:25:24.554Z,69.30
2018-12-22T10:27:52.586Z,69.20
2018-12-22T10:30:20.763Z,68.90
2018-12-22T10:32:48.945Z,70.50
2018-12-22T10:35:33.936Z,70.90
2018-12-22T10:38:02.009Z,74.50
2018-12-22T10:40:30.226Z,76.20
2018-12-22T10:42:58.483Z,75.10
2018-12-22T10:45:26.699Z,75.40
2018-12-22T10:47:54.704Z,73.90
2018-12-22T10:50:22.888Z,72.90
2018-12-22T10:52:50.973Z,72.00
2018-12-22T10:55:19.073Z,70.90
2018-12-22T10:57:47.159Z,69.50
2018-12-22T11:00:19.416Z,68.70
2018-12-22T11:02:47.529Z,69.00
2018-12-22T11:05:16.921Z,68.50
2018-12-22T11:07:46.024Z,68.20
2018-12-22T11:10:21.300Z,68.70
2018-12-22T11:12:51.184Z,67.90
2018-12-22T11:15:19.323Z,67.50
2018-12-22T11:17:47.506Z,68.50
2018-12-22T11:20:15.666Z,67.40
2018-12-22T11:22:43.814Z,68.40
2018-12-22T11:25:23.654Z,67.20
2018-12-22T11:27:51.753Z,68.50
2018-12-22T11:30:29.094Z,66.80
2018-12-22T11:32:57.246Z,66.20
2018-12-22T11:35:25.406Z,66.80
2018-12-22T11:37:53.511Z,66.60
2018-12-22T11:40:21.639Z,68.00
2018-12-22T11:42:49.802Z,67.40
2018-12-22T11:45:18.018Z,67.60
2018-12-22T11:48:07.140Z,65.80
2018-12-22T11:50:35.219Z,63.80
2018-12-22T11:53:03.404Z,62.90
2018-12-22T11:55:31.634Z,64.80
2018-12-22T11:57:59.896Z,62.50
2018-12-22T12:00:28.105Z,62.90
2018-12-22T12:02:56.207Z,59.80
2018-12-22T12:05:24.376Z,61.40
2018-12-22T12:07:52.532Z,57.50
2018-12-22T12:10:20.730Z,57.90
2018-12-22T12:12:48.953Z,58.40
2018-12-22T12:15:22.633Z,58.50
2018-12-22T12:18:40.407Z,60.70
2018-12-22T12:21:08.687Z,58.20
2018-12-22T12:23:36.851Z,58.60
2018-12-22T12:26:04.965Z,60.90
2018-12-22T12:28:33.224Z,61.70
2018-12-22T12:31:01.461Z,62.90
2018-12-22T12:33:29.689Z,61.70
2018-12-22T12:35:57.876Z,63.30
2018-12-22T12:38:26.094Z,59.40
2018-12-22T12:40:54.320Z,55.30
2018-12-22T12:43:22.426Z,55.00
2018-12-22T12:45:50.673Z,54.00
2018-12-22T12:48:22.422Z,54.20
2018-12-22T12:50:50.830Z,53.50
2018-12-22T12:53:19.023Z,52.90
2018-12-22T12:55:47.332Z,53.10
2018-12-22T12:58:15.543Z,52.60
2018-12-22T13:00:43.693Z,53.20
2018-12-22T13:03:11.852Z,52.90
2018-12-22T13:05:40.131Z,51.90
2018-12-22T13:08:08.387Z,51.80
2018-12-22T13:10:36.847Z,50.50
2018-12-22T13:14:22.619Z,50.60
2018-12-22T13:16:51.237Z,50.40
2018-12-22T13:19:19.353Z,49.70
2018-12-22T13:21:52.047Z,50.00
2018-12-22T13:24:20.262Z,49.20
2018-12-22T13:26:49.137Z,49.00
2018-12-22T13:29:17.395Z,48.10
2018-12-22T13:31:46.267Z,48.20
2018-12-22T13:34:14.549Z,48.80
2018-12-22T13:36:42.849Z,49.30
2018-12-22T13:39:18.885Z,48.90
2018-12-22T13:41:47.047Z,49.10
2018-12-22T13:44:15.505Z,49.50
2018-12-22T13:46:43.645Z,48.10
2018-12-22T13:49:12.093Z,47.70
2018-12-22T13:51:43.239Z,48.00
2018-12-22T13:54:12.687Z,48.20
2018-12-22T13:56:41.291Z,48.90
2018-12-22T13:59:09.394Z,47.90
2018-12-22T14:01:43.621Z,48.10
2018-12-22T14:04:11.930Z,47.40
2018-12-22T14:06:43.748Z,47.00
2018-12-22T14:09:12.563Z,47.60
2018-12-22T14:11:42.145Z,48.00
2018-12-22T14:14:18.418Z,47.40
2018-12-22T14:20:13.555Z,48.20
2018-12-22T14:22:42.117Z,48.40
2018-12-22T14:25:21.453Z,49.30
2018-12-22T14:27:49.691Z,47.80
2018-12-22T14:30:17.888Z,47.70
2018-12-22T14:32:47.615Z,48.20
2018-12-22T14:35:33.603Z,47.90
2018-12-22T14:38:01.753Z,48.40
2018-12-22T14:40:29.957Z,48.20
2018-12-22T14:42:58.061Z,49.00
2018-12-22T14:45:26.389Z,48.40
2018-12-22T14:47:54.574Z,48.70
2018-12-22T14:50:22.826Z,49.30
2018-12-22T14:52:51.023Z,48.80
2018-12-22T14:55:19.326Z,48.70
2018-12-22T14:57:53.427Z,49.00
2018-12-22T15:00:21.706Z,49.50
2018-12-22T15:02:50.148Z,49.60
2018-12-22T15:05:18.589Z,49.70
2018-12-22T15:07:47.390Z,50.00
2018-12-22T15:10:15.642Z,49.70
2018-12-22T15:12:43.719Z,50.20
2018-12-22T15:15:12.014Z,50.50
2018-12-22T15:17:40.511Z,50.40
2018-12-22T15:20:14.180Z,49.90
2018-12-22T15:22:42.340Z,49.80
2018-12-22T15:25:10.652Z,49.20
2018-12-22T15:27:38.800Z,49.80
2018-12-22T15:30:12.787Z,50.10
2018-12-22T15:32:44.501Z,51.00
2018-12-22T15:35:11.239Z,51.90
2018-12-22T15:37:39.350Z,52.40
2018-12-22T15:40:08.430Z,53.20
2018-12-22T15:42:36.620Z,53.50
2018-12-22T15:45:09.663Z,54.20
2018-12-22T15:47:37.803Z,54.30
2018-12-22T15:50:11.475Z,53.00
2018-12-22T15:52:39.607Z,54.10
2018-12-22T15:55:08.303Z,53.90
2018-12-22T15:57:36.627Z,53.50
2018-12-22T16:00:07.639Z,53.10
2018-12-22T16:02:35.705Z,52.90
2018-12-22T16:05:04.533Z,53.10
2018-12-22T16:07:32.672Z,53.10
2018-12-22T16:10:00.784Z,53.20
2018-12-22T16:12:29.114Z,53.20
2018-12-22T16:14:57.174Z,53.30
2018-12-22T16:17:25.339Z,53.20
2018-12-22T16:19:53.498Z,53.50
2018-12-22T16:22:21.542Z,54.20
2018-12-22T16:24:49.779Z,54.80
2018-12-22T16:27:17.940Z,55.00
2018-12-22T16:29:46.544Z,55.40
2018-12-22T16:32:14.698Z,55.10
2018-12-22T16:34:42.832Z,55.20
2018-12-22T16:37:11.137Z,55.50
2018-12-22T16:39:39.552Z,55.40
2018-12-22T16:42:07.879Z,56.30
2018-12-22T16:44:36.196Z,56.10
2018-12-22T16:47:04.450Z,56.80
2018-12-22T16:49:32.910Z,57.00
2018-12-22T16:52:01.263Z,56.70
2018-12-22T16:54:29.355Z,56.30
2018-12-22T16:56:57.417Z,56.10
2018-12-22T16:59:31.705Z,56.00
2018-12-22T17:02:10.930Z,56.00
2018-12-22T17:04:39.014Z,56.00
2018-12-22T17:07:07.353Z,56.20
2018-12-22T17:09:35.560Z,56.30
2018-12-22T17:12:03.879Z,56.50
2018-12-22T17:14:32.093Z,56.40
2018-12-22T17:17:00.482Z,56.80
2018-12-22T17:19:28.673Z,56.90
2018-12-22T17:22:57.082Z,56.80
2018-12-22T17:25:40.581Z,56.90
2018-12-22T17:28:08.870Z,56.90
2018-12-22T17:30:37.125Z,56.90
2018-12-22T17:33:05.345Z,57.00
2018-12-22T17:35:35.435Z,56.90
2018-12-22T17:38:03.797Z,56.90
2018-12-22T17:40:32.047Z,57.20
2018-12-22T17:43:00.257Z,57.30
2018-12-22T17:45:28.674Z,58.00
2018-12-22T17:47:56.938Z,59.60
2018-12-22T17:50:25.250Z,59.30
2018-12-22T17:52:53.737Z,57.90
2018-12-22T17:55:21.947Z,58.40
2018-12-22T17:57:50.218Z,57.50
2018-12-22T18:00:20.321Z,56.40
2018-12-22T18:02:48.893Z,56.00
2018-12-22T18:05:17.236Z,56.00
2018-12-22T18:07:45.832Z,55.60
2018-12-22T18:10:14.218Z,56.40
2018-12-22T18:12:42.722Z,56.30
2018-12-22T18:15:14.907Z,56.40
2018-12-22T18:17:43.193Z,56.20
2018-12-22T18:20:11.455Z,56.00
2018-12-22T18:22:39.745Z,56.10
2018-12-22T18:25:10.789Z,56.00
2018-12-22T18:27:39.027Z,56.00
2018-12-22T18:30:11.353Z,55.80
2018-12-22T18:32:40.275Z,57.50
2018-12-22T18:35:09.945Z,57.80
2018-12-22T18:37:38.252Z,57.50
2018-12-22T18:40:12.763Z,57.20
2018-12-22T18:42:41.407Z,57.40
2018-12-22T18:45:11.457Z,57.10
2018-12-22T18:47:40.943Z,57.20
2018-12-22T18:50:15.203Z,57.20
2018-12-22T18:52:43.868Z,58.10
2018-12-22T18:55:12.226Z,58.10
2018-12-22T18:57:40.948Z,58.10
2018-12-22T19:00:17.849Z,57.60
2018-12-22T19:02:48.094Z,56.80
2018-12-22T19:05:17.715Z,58.30
2018-12-22T19:07:47.484Z,58.20
2018-12-22T19:10:25.871Z,58.70
2018-12-22T19:12:56.122Z,58.50
2018-12-22T19:15:25.035Z,58.60
2018-12-22T19:17:54.166Z,62.00
2018-12-22T19:20:32.994Z,63.40
2018-12-22T19:23:02.015Z,64.00
2018-12-22T19:25:30.302Z,64.30
2018-12-22T19:27:58.473Z,64.10
2018-12-22T19:30:26.810Z,63.80
2018-12-22T19:32:55.189Z,63.80
2018-12-22T19:35:23.661Z,63.60
2018-12-22T19:37:52.003Z,63.50
2018-12-22T19:40:20.181Z,63.40
2018-12-22T19:42:48.538Z,63.50
2018-12-22T19:45:16.840Z,63.60
2018-12-22T19:47:45.019Z,63.50
2018-12-22T19:50:13.157Z,63.90
2018-12-22T19:52:41.531Z,63.90
2018-12-22T19:55:09.856Z,63.90
2018-12-22T19:57:38.077Z,63.90
2018-12-22T20:00:06.673Z,64.20
2018-12-22T20:02:35.724Z,64.10
2018-12-22T20:05:05.005Z,64.00
2018-12-22T20:07:33.334Z,64.20
2018-12-22T20:10:01.737Z,64.40
2018-12-22T20:12:30.023Z,64.00
2018-12-22T20:14:58.457Z,63.50
2018-12-22T20:17:26.824Z,63.50
2018-12-22T20:19:55.177Z,63.30
2018-12-22T20:22:23.575Z,63.30
2018-12-22T20:24:51.855Z,62.60
2018-12-22T20:27:20.090Z,61.90
2018-12-22T20:29:48.362Z,62.60
2018-12-22T20:32:16.726Z,62.80
2018-12-22T20:34:45.622Z,62.70
2018-12-22T20:37:13.948Z,62.30
2018-12-22T20:39:42.068Z,62.10
2018-12-22T20:42:10.291Z,62.20
2018-12-22T20:44:38.565Z,61.30
2018-12-22T20:47:07.005Z,61.80
2018-12-22T20:49:35.201Z,61.70
2018-12-22T20:52:03.626Z,61.60
2018-12-22T20:54:31.850Z,62.30
2018-12-22T20:57:00.193Z,63.00
2018-12-22T20:59:28.500Z,63.20
2018-12-22T21:01:56.786Z,62.40
2018-12-22T21:04:25.714Z,62.70
2018-12-22T21:06:54.063Z,63.10
2018-12-22T21:09:22.415Z,62.70
2018-12-22T21:11:50.820Z,62.40
2018-12-22T21:14:18.982Z,61.50
2018-12-22T21:16:47.296Z,61.30
2018-12-22T21:19:15.590Z,61.00
2018-12-22T21:21:43.887Z,60.60
2018-12-22T21:24:12.299Z,60.40
2018-12-22T21:26:40.648Z,60.10
2018-12-22T21:29:08.928Z,59.40
2018-12-22T21:31:37.509Z,58.60
2018-12-22T21:34:05.800Z,58.20
2018-12-22T21:36:34.080Z,58.90
2018-12-22T21:39:04.814Z,59.40
2018-12-22T21:41:33.148Z,59.50
2018-12-22T21:44:01.552Z,59.30
2018-12-22T21:46:29.865Z,59.10
2018-12-22T21:48:58.563Z,59.00
2018-12-22T21:51:27.204Z,58.70
2018-12-22T21:53:56.237Z,58.60
2018-12-22T21:56:24.808Z,58.70
2018-12-22T21:58:53.212Z,58.50
2018-12-22T22:01:21.662Z,58.50
2018-12-22T22:03:50.017Z,58.20
2018-12-22T22:06:18.328Z,58.00
2018-12-22T22:08:46.701Z,58.60
2018-12-22T22:11:15.066Z,59.30
2018-12-22T22:13:43.579Z,58.90
2018-12-22T22:16:12.312Z,59.40
2018-12-22T22:18:40.703Z,59.30
2018-12-22T22:21:09.152Z,59.90
2018-12-22T22:23:37.457Z,58.90
2018-12-22T22:26:05.888Z,59.80
2018-12-22T22:28:34.329Z,59.10
2018-12-22T22:33:54.311Z,58.40
2018-12-22T22:36:22.629Z,58.30
2018-12-22T22:38:51.081Z,58.40
2018-12-22T22:41:19.352Z,58.50
2018-12-22T22:43:47.704Z,58.40
2018-12-22T22:46:15.873Z,58.30
2018-12-22T22:48:44.277Z,58.60
2018-12-22T22:51:12.450Z,58.70
2018-12-22T22:53:40.701Z,58.90
2018-12-22T22:56:09.002Z,59.00
2018-12-22T22:58:37.328Z,59.50
2018-12-22T23:01:05.745Z,60.30
2018-12-22T23:03:33.884Z,60.30
2018-12-22T23:06:02.020Z,60.80
2018-12-22T23:08:30.319Z,60.20
2018-12-22T23:10:58.615Z,60.30
2018-12-22T23:13:26.865Z,60.50
2018-12-22T23:15:55.225Z,60.70
2018-12-22T23:18:23.553Z,61.20
2018-12-22T23:20:52.052Z,61.00
2018-12-22T23:23:20.312Z,61.60
2018-12-22T23:25:55.314Z,61.80
2018-12-22T23:28:23.546Z,61.40
2018-12-22T23:30:51.691Z,61.30
2018-12-22T23:33:19.891Z,61.80
2018-12-22T23:35:48.444Z,61.50
2018-12-22T23:38:16.726Z,61.20
2018-12-22T23:40:45.581Z,60.50
2018-12-22T23:43:13.745Z,61.20
2018-12-22T23:45:41.956Z,61.40
2018-12-22T23:48:10.188Z,62.70
2018-12-22T23:50:38.318Z,62.70
2018-12-22T23:53:06.428Z,63.80
2018-12-22T23:55:34.536Z,63.20
2018-12-22T23:58:02.588Z,63.50
